createdAt,value
2018-02-20T00:02:02.592Z,40.60
2018-02-20T00:04:29.581Z,45.27
2018-02-20T00:06:55.784Z,42.30
2018-02-20T00:09:22.741Z,39.63
2018-02-20T00:11:49.011Z,38.47
2018-02-20T00:14:15.145Z,38.77
2018-02-20T00:16:41.265Z,41.50
2018-02-20T00:19:07.575Z,39.20
2018-02-20T00:21:33.794Z,45.40
2018-02-20T00:23:59.995Z,42.97
2018-02-20T00:26:26.173Z,44.30
2018-02-20T00:28:52.339Z,36.13
2018-02-20T00:31:19.240Z,41.13
2018-02-20T00:33:45.405Z,45.73
2018-02-20T00:36:12.339Z,38.57
2018-02-20T00:38:39.275Z,43.20
2018-02-20T00:41:05.515Z,43.90
2018-02-20T00:43:32.464Z,42.30
2018-02-20T00:45:59.375Z,48.27
2018-02-20T00:48:25.521Z,42.40
2018-02-20T00:50:51.699Z,44.13
2018-02-20T00:53:17.810Z,45.63
2018-02-20T00:55:44.699Z,40.97
2018-02-20T00:58:10.868Z,41.73
2018-02-20T01:00:37.814Z,45.77
2018-02-20T01:03:04.743Z,43.37
2018-02-20T01:05:31.662Z,42.80
2018-02-20T01:07:57.885Z,46.37
2018-02-20T01:10:24.112Z,44.10
2018-02-20T01:12:50.296Z,44.37
2018-02-20T01:15:17.261Z,46.17
2018-02-20T01:17:43.443Z,44.47
2018-02-20T01:20:09.647Z,44.30
2018-02-20T01:22:35.850Z,43.53
2018-02-20T01:25:02.013Z,41.40
2018-02-20T01:27:28.255Z,47.77
2018-02-20T01:29:54.395Z,44.77
2018-02-20T01:32:21.313Z,49.83
2018-02-20T01:34:47.488Z,53.60
2018-02-20T01:37:14.449Z,50.70
2018-02-20T01:39:40.614Z,59.43
2018-02-20T01:42:06.800Z,55.13
2018-02-20T01:44:32.953Z,50.77
2018-02-20T01:46:59.095Z,54.47
2018-02-20T01:49:25.236Z,52.23
2018-02-20T01:51:51.369Z,54.87
2018-02-20T01:54:18.341Z,53.03
2018-02-20T01:56:44.550Z,51.20
2018-02-20T01:59:11.490Z,54.83
2018-02-20T02:01:37.649Z,53.17
2018-02-20T02:04:03.850Z,51.80
2018-02-20T02:06:30.822Z,57.00
2018-02-20T02:08:56.993Z,51.60
2018-02-20T02:11:23.172Z,51.13
2018-02-20T02:13:49.364Z,50.90
2018-02-20T02:16:15.535Z,49.13
2018-02-20T02:18:41.700Z,49.77
2018-02-20T02:21:07.891Z,52.30
2018-02-20T02:23:34.075Z,53.13
2018-02-20T02:26:01.028Z,52.37
2018-02-20T02:28:27.236Z,51.50
2018-02-20T02:30:53.389Z,51.93
2018-02-20T02:33:20.345Z,50.20
2018-02-20T02:35:46.536Z,51.73
2018-02-20T02:38:13.462Z,47.90
2018-02-20T02:40:39.690Z,54.43
2018-02-20T02:43:05.816Z,48.80
2018-02-20T02:45:31.991Z,51.33
2018-02-20T02:47:58.162Z,49.33
2018-02-20T02:50:24.360Z,50.33
2018-02-20T02:52:50.567Z,53.17
2018-02-20T02:55:17.485Z,44.07
2018-02-20T02:57:43.681Z,47.00
2018-02-20T03:00:09.834Z,53.50
2018-02-20T03:02:36.013Z,47.07
2018-02-20T03:05:02.157Z,53.83
2018-02-20T03:07:28.321Z,50.73
2018-02-20T03:09:54.858Z,54.13
2018-02-20T03:12:21.790Z,50.83
2018-02-20T03:14:47.937Z,56.03
2018-02-20T03:17:14.884Z,51.70
2018-02-20T03:19:41.788Z,52.77
2018-02-20T03:22:07.952Z,53.10
2018-02-20T03:24:34.119Z,51.33
2018-02-20T03:27:00.332Z,54.53
2018-02-20T03:29:26.523Z,51.67
2018-02-20T03:31:53.437Z,53.20
2018-02-20T03:34:19.648Z,53.80
2018-02-20T03:36:45.848Z,61.40
2018-02-20T03:39:12.759Z,58.60
2018-02-20T03:41:38.931Z,52.73
2018-02-20T03:44:05.094Z,47.23
2018-02-20T03:46:31.253Z,56.17
2018-02-20T03:48:57.376Z,52.63
2018-02-20T03:51:23.615Z,59.83
2018-02-20T03:53:50.608Z,49.67
2018-02-20T03:56:16.772Z,52.33
2018-02-20T03:58:42.896Z,49.60
2018-02-20T04:01:09.135Z,52.17
2018-02-20T04:03:36.040Z,52.97
2018-02-20T04:06:02.291Z,56.40
2018-02-20T04:08:28.523Z,54.17
2018-02-20T04:10:54.756Z,52.17
2018-02-20T04:13:20.903Z,51.17
2018-02-20T04:15:47.059Z,54.67
2018-02-20T04:18:13.230Z,51.40
2018-02-20T04:20:39.409Z,56.10
2018-02-20T04:23:05.590Z,59.40
2018-02-20T04:25:31.785Z,52.63
2018-02-20T04:27:57.988Z,50.70
2018-02-20T04:30:24.109Z,48.10
2018-02-20T04:32:51.007Z,56.37
2018-02-20T04:35:17.183Z,46.30
2018-02-20T04:37:43.411Z,46.30
2018-02-20T04:40:10.272Z,52.27
2018-02-20T04:42:36.495Z,43.70
2018-02-20T04:45:02.712Z,48.50
2018-02-20T04:47:29.656Z,37.73
2018-02-20T04:49:55.822Z,44.43
2018-02-20T04:52:21.972Z,44.63
2018-02-20T04:54:48.170Z,45.27
2018-02-20T04:57:14.312Z,44.87
2018-02-20T04:59:40.452Z,39.37
2018-02-20T05:02:06.576Z,42.13
2018-02-20T05:04:32.787Z,45.60
2018-02-20T05:06:58.997Z,43.73
2018-02-20T05:09:25.185Z,40.33
2018-02-20T05:11:52.127Z,48.03
2018-02-20T05:14:19.135Z,43.50
2018-02-20T05:16:45.351Z,44.17
2018-02-20T05:19:11.492Z,41.50
2018-02-20T05:21:37.709Z,41.80
2018-02-20T05:24:03.835Z,45.13
2018-02-20T05:26:29.998Z,38.37
2018-02-20T05:28:56.173Z,43.20
2018-02-20T05:31:22.374Z,43.83
2018-02-20T05:33:48.568Z,44.23
2018-02-20T05:36:18.814Z,39.43
2018-02-20T05:38:52.145Z,42.57
2018-02-20T05:41:18.331Z,48.93
2018-02-20T05:43:45.269Z,39.20
2018-02-20T05:46:11.417Z,41.87
2018-02-20T05:48:38.373Z,39.80
2018-02-20T05:51:04.497Z,41.20
2018-02-20T05:53:30.742Z,41.27
2018-02-20T05:55:56.930Z,41.50
2018-02-20T05:58:23.845Z,45.13
2018-02-20T06:00:50.087Z,40.53
2018-02-20T06:03:16.229Z,37.80
2018-02-20T06:05:42.350Z,40.90
2018-02-20T06:08:08.555Z,39.70
2018-02-20T06:10:34.800Z,38.27
2018-02-20T06:13:01.038Z,44.00
2018-02-20T06:15:27.997Z,51.87
2018-02-20T06:17:54.947Z,48.37
2018-02-20T06:20:21.154Z,44.87
2018-02-20T06:22:47.282Z,42.43
2018-02-20T06:25:13.491Z,48.60
2018-02-20T06:27:39.682Z,43.90
2018-02-20T06:30:05.845Z,49.33
2018-02-20T06:32:32.030Z,45.00
2018-02-20T06:34:58.269Z,39.40
2018-02-20T06:37:24.442Z,42.53
2018-02-20T06:39:50.693Z,43.40
2018-02-20T06:42:17.684Z,45.53
2018-02-20T06:44:43.900Z,44.40
2018-02-20T06:47:10.104Z,52.30
2018-02-20T06:49:36.317Z,65.97
2018-02-20T06:52:03.324Z,57.97
2018-02-20T06:54:29.521Z,51.63
2018-02-20T06:56:55.732Z,46.10
2018-02-20T06:59:23.169Z,45.13
2018-02-20T07:01:50.060Z,48.83
2018-02-20T07:04:16.237Z,45.00
2018-02-20T07:06:42.410Z,50.17
2018-02-20T07:09:08.601Z,50.33
2018-02-20T07:11:35.562Z,44.97
2018-02-20T07:14:01.811Z,44.90
2018-02-20T07:16:28.018Z,47.70
2018-02-20T07:18:54.955Z,45.40
2018-02-20T07:21:21.918Z,55.30
2018-02-20T07:23:48.150Z,65.67
2018-02-20T07:26:14.364Z,51.90
2018-02-20T07:28:40.551Z,61.47
2018-02-20T07:31:07.504Z,53.77
2018-02-20T07:33:33.692Z,52.80
2018-02-20T07:35:59.861Z,48.83
2018-02-20T07:38:26.046Z,50.10
2018-02-20T07:40:52.172Z,50.90
2018-02-20T07:43:18.336Z,46.17
2018-02-20T07:45:44.462Z,52.97
2018-02-20T07:48:10.650Z,47.03
2018-02-20T07:50:36.812Z,50.00
2018-02-20T07:53:03.832Z,47.73
2018-02-20T07:55:30.042Z,48.73
2018-02-20T07:57:56.227Z,51.20
2018-02-20T08:00:22.447Z,46.50
2018-02-20T08:02:48.669Z,50.23
2018-02-20T08:05:14.902Z,46.80
2018-02-20T08:07:41.153Z,43.10
2018-02-20T08:10:08.247Z,43.53
2018-02-20T08:12:34.423Z,45.80
2018-02-20T08:15:01.368Z,43.53
2018-02-20T08:17:28.383Z,46.77
2018-02-20T08:19:55.248Z,45.53
2018-02-20T08:22:21.406Z,45.40
2018-02-20T08:24:48.450Z,45.20
2018-02-20T08:27:14.665Z,44.40
2018-02-20T08:29:41.610Z,58.87
2018-02-20T08:32:08.650Z,42.93
2018-02-20T08:34:35.573Z,47.87
2018-02-20T08:37:01.772Z,51.97
2018-02-20T08:39:28.075Z,48.27
2018-02-20T08:41:54.270Z,48.53
2018-02-20T08:44:21.156Z,42.20
2018-02-20T08:46:47.350Z,46.53
2018-02-20T08:49:14.395Z,43.93
2018-02-20T08:51:41.387Z,43.80
2018-02-20T08:54:07.635Z,47.40
2018-02-20T08:56:33.825Z,44.40
2018-02-20T08:59:00.076Z,46.40
2018-02-20T09:01:26.239Z,51.93
2018-02-20T09:03:52.428Z,43.93
2018-02-20T09:06:19.096Z,48.80
2018-02-20T09:08:45.268Z,48.57
2018-02-20T09:11:12.252Z,57.47
2018-02-20T09:13:39.424Z,46.97
2018-02-20T09:16:05.649Z,55.30
2018-02-20T09:18:31.894Z,56.87
2018-02-20T09:20:58.841Z,50.33
2018-02-20T09:23:25.041Z,48.77
2018-02-20T09:25:51.207Z,46.63
2018-02-20T09:28:18.220Z,54.47
2018-02-20T09:30:44.434Z,53.17
2018-02-20T09:33:10.616Z,51.20
2018-02-20T09:35:37.520Z,49.53
2018-02-20T09:38:03.698Z,47.20
2018-02-20T09:40:29.908Z,48.87
2018-02-20T09:42:56.896Z,51.70
2018-02-20T09:45:23.124Z,51.40
2018-02-20T09:47:49.425Z,44.30
2018-02-20T09:50:15.674Z,47.60
2018-02-20T09:52:41.876Z,51.33
2018-02-20T09:55:08.776Z,46.50
2018-02-20T09:57:34.958Z,47.77
2018-02-20T10:00:01.162Z,52.33
2018-02-20T10:02:27.682Z,49.70
2018-02-20T10:04:54.583Z,50.07
2018-02-20T10:07:20.711Z,47.00
2018-02-20T10:09:46.914Z,50.83
2018-02-20T10:12:13.839Z,47.93
2018-02-20T10:14:40.781Z,46.70
2018-02-20T10:17:06.957Z,48.10
2018-02-20T10:19:33.101Z,44.10
2018-02-20T10:21:59.514Z,51.50
2018-02-20T10:24:25.732Z,47.60
2018-02-20T10:26:51.890Z,52.30
2018-02-20T10:29:18.085Z,46.87
2018-02-20T10:31:44.286Z,55.10
2018-02-20T10:34:11.280Z,43.90
2018-02-20T10:36:37.429Z,47.23
2018-02-20T10:39:03.643Z,46.23
2018-02-20T10:41:29.939Z,49.60
2018-02-20T10:43:56.104Z,49.80
2018-02-20T10:46:22.332Z,43.27
2018-02-20T10:48:48.893Z,52.00
2018-02-20T10:51:15.804Z,53.23
2018-02-20T10:53:41.948Z,49.97
2018-02-20T10:56:08.170Z,49.53
2018-02-20T10:58:34.355Z,47.50
2018-02-20T11:01:00.512Z,42.13
2018-02-20T11:03:26.676Z,51.43
2018-02-20T11:05:53.565Z,42.50
2018-02-20T11:08:19.778Z,44.17
2018-02-20T11:10:45.967Z,45.00
2018-02-20T11:13:12.908Z,47.67
2018-02-20T11:15:39.107Z,45.93
2018-02-20T11:18:05.272Z,49.60
2018-02-20T11:20:32.248Z,42.63
2018-02-20T11:22:58.451Z,43.03
2018-02-20T11:25:25.410Z,43.07
2018-02-20T11:27:52.332Z,47.73
2018-02-20T11:30:18.516Z,47.00
2018-02-20T11:32:44.726Z,42.33
2018-02-20T11:35:10.872Z,48.73
2018-02-20T11:37:37.053Z,50.50
2018-02-20T11:40:04.003Z,47.70
2018-02-20T11:42:30.962Z,44.97
2018-02-20T11:44:57.149Z,45.57
2018-02-20T11:47:24.126Z,47.73
2018-02-20T11:49:51.097Z,44.17
2018-02-20T11:52:17.311Z,44.90
2018-02-20T11:54:43.524Z,51.43
2018-02-20T11:57:10.480Z,50.03
2018-02-20T11:59:36.681Z,52.60
2018-02-20T12:02:03.711Z,57.17
2018-02-20T12:04:29.940Z,49.07
2018-02-20T12:06:56.879Z,50.57
2018-02-20T12:09:23.074Z,48.67
2018-02-20T12:11:49.247Z,48.73
2018-02-20T12:14:15.417Z,45.83
2018-02-20T12:16:41.584Z,49.27
2018-02-20T12:19:07.827Z,48.23
2018-02-20T12:21:34.039Z,47.90
2018-02-20T12:24:00.256Z,50.07
2018-02-20T12:26:26.494Z,67.40
2018-02-20T12:28:52.698Z,44.80
2018-02-20T12:31:18.908Z,46.93
2018-02-20T12:33:45.049Z,49.30
2018-02-20T12:36:11.815Z,45.87
2018-02-20T12:38:38.019Z,45.53
2018-02-20T12:41:04.172Z,46.63
2018-02-20T12:43:31.282Z,46.97
2018-02-20T12:45:57.446Z,50.03
2018-02-20T12:48:23.729Z,46.53
2018-02-20T12:50:50.681Z,50.37
2018-02-20T12:53:18.330Z,51.07
2018-02-20T12:55:45.321Z,39.83
2018-02-20T12:58:11.599Z,46.43
2018-02-20T13:00:38.535Z,53.60
2018-02-20T13:03:05.610Z,46.23
2018-02-20T13:05:31.870Z,38.70
2018-02-20T13:07:58.068Z,43.20
2018-02-20T13:10:24.272Z,43.37
2018-02-20T13:12:51.222Z,42.43
2018-02-20T13:15:18.217Z,41.73
2018-02-20T13:17:44.398Z,39.47
2018-02-20T13:20:11.347Z,38.07
2018-02-20T13:22:38.273Z,42.80
2018-02-20T13:25:05.163Z,43.90
2018-02-20T13:27:31.395Z,42.33
2018-02-20T13:29:57.577Z,46.50
2018-02-20T13:32:24.777Z,46.20
2018-02-20T13:34:50.909Z,42.03
2018-02-20T13:37:17.136Z,41.57
2018-02-20T13:39:43.260Z,37.43
2018-02-20T13:42:09.434Z,41.30
2018-02-20T13:44:36.685Z,41.97
2018-02-20T13:47:03.615Z,39.03
2018-02-20T13:49:29.906Z,36.50
2018-02-20T13:51:56.132Z,39.33
2018-02-20T13:54:22.259Z,38.10
2018-02-20T13:56:48.504Z,34.53
2018-02-20T13:59:14.759Z,38.90
2018-02-20T14:01:41.707Z,39.23
2018-02-20T14:04:08.707Z,37.13
2018-02-20T14:06:34.859Z,39.10
2018-02-20T14:09:01.377Z,40.20
2018-02-20T14:11:27.536Z,37.33
2018-02-20T14:13:53.673Z,39.93
2018-02-20T14:16:19.844Z,37.07
2018-02-20T14:18:46.075Z,39.37
2018-02-20T14:21:12.319Z,41.90
2018-02-20T14:23:38.517Z,45.23
2018-02-20T14:26:04.672Z,37.07
2018-02-20T14:28:30.831Z,36.70
2018-02-20T14:30:56.999Z,41.07
2018-02-20T14:33:23.124Z,38.73
2018-02-20T14:35:49.324Z,38.13
2018-02-20T14:38:16.309Z,41.70
2018-02-20T14:40:42.432Z,43.60
2018-02-20T14:43:08.606Z,38.80
2018-02-20T14:45:34.831Z,40.53
2018-02-20T14:48:01.031Z,36.63
2018-02-20T14:50:27.238Z,41.70
2018-02-20T14:52:55.151Z,40.37
2018-02-20T14:55:21.355Z,42.37
2018-02-20T14:57:47.575Z,45.97
2018-02-20T15:00:13.725Z,42.10
2018-02-20T15:02:39.944Z,45.50
2018-02-20T15:05:06.154Z,49.17
2018-02-20T15:07:32.360Z,42.17
2018-02-20T15:09:59.242Z,42.10
2018-02-20T15:12:25.487Z,41.60
2018-02-20T15:14:51.648Z,38.00
2018-02-20T15:17:18.956Z,39.03
2018-02-20T15:19:45.140Z,38.93
2018-02-20T15:22:11.353Z,38.60
2018-02-20T15:24:38.319Z,41.27
2018-02-20T15:27:05.258Z,43.50
2018-02-20T15:29:32.137Z,39.47
2018-02-20T15:31:58.336Z,39.10
2018-02-20T15:34:25.269Z,43.17
2018-02-20T15:36:52.241Z,43.27
2018-02-20T15:39:18.423Z,40.77
2018-02-20T15:41:44.585Z,43.30
2018-02-20T15:44:10.834Z,42.60
2018-02-20T15:46:37.127Z,38.90
2018-02-20T15:49:04.038Z,39.97
2018-02-20T15:51:30.235Z,41.83
2018-02-20T15:53:56.453Z,40.07
2018-02-20T15:56:22.639Z,41.87
2018-02-20T15:58:48.837Z,44.60
2018-02-20T16:01:15.003Z,38.50
2018-02-20T16:03:41.939Z,36.33
2018-02-20T16:06:08.086Z,40.63
2018-02-20T16:08:35.196Z,41.93
2018-02-20T16:11:01.445Z,41.80
2018-02-20T16:13:28.425Z,41.40
2018-02-20T16:15:55.698Z,42.00
2018-02-20T16:18:21.876Z,45.93
2018-02-20T16:20:48.896Z,42.13
2018-02-20T16:23:15.078Z,46.67
2018-02-20T16:25:41.278Z,45.80
2018-02-20T16:28:08.196Z,42.10
2018-02-20T16:30:34.349Z,41.20
2018-02-20T16:33:00.523Z,41.57
2018-02-20T16:35:26.728Z,40.17
2018-02-20T16:37:52.903Z,44.90
2018-02-20T16:40:19.096Z,49.40
2018-02-20T16:42:45.274Z,43.90
2018-02-20T16:45:11.468Z,48.33
2018-02-20T16:47:37.714Z,47.10
2018-02-20T16:50:03.947Z,48.70
2018-02-20T16:52:30.449Z,51.80
2018-02-20T16:54:56.623Z,54.53
2018-02-20T16:57:22.842Z,49.87
2018-02-20T16:59:49.766Z,51.27
2018-02-20T17:02:15.989Z,53.77
2018-02-20T17:04:42.205Z,50.77
2018-02-20T17:07:08.478Z,42.73
2018-02-20T17:09:34.703Z,47.30
2018-02-20T17:12:01.641Z,46.70
2018-02-20T17:14:27.811Z,51.90
2018-02-20T17:16:54.422Z,50.57
2018-02-20T17:19:21.302Z,51.17
2018-02-20T17:21:47.469Z,52.90
2018-02-20T17:24:13.690Z,54.93
2018-02-20T17:26:39.885Z,49.73
2018-02-20T17:29:06.037Z,50.93
2018-02-20T17:31:32.234Z,49.07
2018-02-20T17:33:58.384Z,48.83
2018-02-20T17:36:24.574Z,52.40
2018-02-20T17:38:50.788Z,51.60
2018-02-20T17:41:17.729Z,55.07
2018-02-20T17:43:44.675Z,56.43
2018-02-20T17:46:10.880Z,52.70
2018-02-20T17:48:37.133Z,51.27
2018-02-20T17:51:04.165Z,55.10
2018-02-20T17:53:30.376Z,55.70
2018-02-20T17:55:56.658Z,47.93
2018-02-20T17:58:22.873Z,53.23
2018-02-20T18:00:49.775Z,54.67
2018-02-20T18:03:15.994Z,53.27
2018-02-20T18:05:42.224Z,54.83
2018-02-20T18:08:08.412Z,47.80
2018-02-20T18:10:36.301Z,55.40
2018-02-20T18:13:02.570Z,52.33
2018-02-20T18:15:28.732Z,52.53
2018-02-20T18:17:55.694Z,51.97
2018-02-20T18:20:22.000Z,55.50
2018-02-20T18:22:48.977Z,54.57
2018-02-20T18:25:15.128Z,57.10
2018-02-20T18:27:41.354Z,56.80
2018-02-20T18:30:07.559Z,51.30
2018-02-20T18:32:33.733Z,48.80
2018-02-20T18:34:59.876Z,56.03
2018-02-20T18:37:26.023Z,50.23
2018-02-20T18:39:52.208Z,54.93
2018-02-20T18:42:18.480Z,54.30
2018-02-20T18:44:44.734Z,55.43
2018-02-20T18:47:10.912Z,57.03
2018-02-20T18:49:37.830Z,53.10
2018-02-20T18:52:04.032Z,54.87
2018-02-20T18:54:30.275Z,51.73
2018-02-20T18:56:56.532Z,51.47
2018-02-20T18:59:23.476Z,51.20
2018-02-20T19:01:49.630Z,51.30
2018-02-20T19:04:16.601Z,55.37
2018-02-20T19:06:42.885Z,50.17
2018-02-20T19:09:09.154Z,53.27
2018-02-20T19:11:35.489Z,54.00
2018-02-20T19:14:01.710Z,52.87
2018-02-20T19:16:28.126Z,55.90
2018-02-20T19:18:56.039Z,58.83
2018-02-20T19:21:22.440Z,55.70
2018-02-20T19:23:48.640Z,54.40
2018-02-20T19:26:16.295Z,54.80
2018-02-20T19:28:42.509Z,53.43
2018-02-20T19:31:08.779Z,57.30
2018-02-20T19:33:35.035Z,53.97
2018-02-20T19:36:01.271Z,56.97
2018-02-20T19:38:27.482Z,51.10
2018-02-20T19:40:53.682Z,54.63
2018-02-20T19:43:20.573Z,56.03
2018-02-20T19:45:46.840Z,59.53
2018-02-20T19:48:13.058Z,56.70
2018-02-20T19:50:40.056Z,50.33
2018-02-20T19:53:06.281Z,55.53
2018-02-20T19:55:32.504Z,62.40
2018-02-20T19:57:58.759Z,53.57
2018-02-20T20:00:24.987Z,57.70
2018-02-20T20:02:51.180Z,50.90
2018-02-20T20:05:17.432Z,55.57
2018-02-20T20:07:43.685Z,53.00
2018-02-20T20:10:09.870Z,60.43
2018-02-20T20:12:36.015Z,58.50
2018-02-20T20:15:02.244Z,58.63
2018-02-20T20:17:28.405Z,55.33
2018-02-20T20:19:54.681Z,60.70
2018-02-20T20:22:20.871Z,61.13
2018-02-20T20:24:47.800Z,52.10
2018-02-20T20:27:14.009Z,56.60
2018-02-20T20:29:40.175Z,55.00
2018-02-20T20:32:07.130Z,57.20
2018-02-20T20:34:34.923Z,59.80
2018-02-20T20:37:01.131Z,51.53
2018-02-20T20:39:28.040Z,55.90
2018-02-20T20:41:54.186Z,54.10
2018-02-20T20:44:21.146Z,59.50
2018-02-20T20:46:48.050Z,54.63
2018-02-20T20:49:14.282Z,58.27
2018-02-20T20:51:41.324Z,61.83
2018-02-20T20:54:08.425Z,54.60
2018-02-20T20:56:35.445Z,60.47
2018-02-20T20:59:02.416Z,51.90
2018-02-20T21:01:28.645Z,59.30
2018-02-20T21:03:55.570Z,57.07
2018-02-20T21:06:21.764Z,55.33
2018-02-20T21:08:47.926Z,60.13
2018-02-20T21:11:14.937Z,67.50
2018-02-20T21:13:41.105Z,65.30
2018-02-20T21:16:08.143Z,64.20
2018-02-20T21:18:35.133Z,59.37
2018-02-20T21:21:01.255Z,57.63
2018-02-20T21:23:27.497Z,60.23
2018-02-20T21:25:53.916Z,60.80
2018-02-20T21:28:21.099Z,63.17
2018-02-20T21:30:47.549Z,61.17
2018-02-20T21:33:14.012Z,59.70
2018-02-20T21:35:40.331Z,55.77
2018-02-20T21:38:06.573Z,59.83
2018-02-20T21:40:33.776Z,63.63
2018-02-20T21:43:00.198Z,68.47
2018-02-20T21:45:26.608Z,66.63
2018-02-20T21:47:53.045Z,57.30
2018-02-20T21:50:20.331Z,61.27
2018-02-20T21:52:47.508Z,66.27
2018-02-20T21:55:13.760Z,56.40
2018-02-20T21:57:40.162Z,59.97
2018-02-20T22:00:06.684Z,70.87
2018-02-20T22:02:32.964Z,62.50
2018-02-20T22:04:59.437Z,62.90
2018-02-20T22:07:25.874Z,59.83
2018-02-20T22:09:53.117Z,67.57
2018-02-20T22:12:19.462Z,65.73
2018-02-20T22:14:46.408Z,64.47
2018-02-20T22:17:12.552Z,71.13
2018-02-20T22:19:39.491Z,68.13
2018-02-20T22:22:05.656Z,70.10
2018-02-20T22:24:31.974Z,79.13
2018-02-20T22:26:58.904Z,71.77
2018-02-20T22:29:25.869Z,63.60
2018-02-20T22:31:52.043Z,63.83
2018-02-20T22:34:18.234Z,68.70
2018-02-20T22:36:44.470Z,66.03
2018-02-20T22:39:10.638Z,68.40
2018-02-20T22:41:36.836Z,71.00
2018-02-20T22:44:03.002Z,65.90
2018-02-20T22:46:29.126Z,64.07
2018-02-20T22:48:55.371Z,60.90
2018-02-20T22:51:22.256Z,73.03
2018-02-20T22:53:48.438Z,69.07
2018-02-20T22:56:15.365Z,63.50
2018-02-20T22:58:41.566Z,62.37
2018-02-20T23:01:07.805Z,63.03
2018-02-20T23:03:33.945Z,55.63
2018-02-20T23:06:00.119Z,70.97
2018-02-20T23:08:27.044Z,69.20
2018-02-20T23:10:53.980Z,61.70
2018-02-20T23:13:20.972Z,62.47
2018-02-20T23:15:47.164Z,64.67
2018-02-20T23:18:14.089Z,66.73
2018-02-20T23:20:40.349Z,69.97
2018-02-20T23:23:06.498Z,64.00
2018-02-20T23:25:34.894Z,63.63
2018-02-20T23:28:01.097Z,70.63
2018-02-20T23:30:27.309Z,71.63
2018-02-20T23:32:53.473Z,66.83
2018-02-20T23:35:19.635Z,65.33
2018-02-20T23:37:45.836Z,66.13
2018-02-20T23:40:12.033Z,64.27
2018-02-20T23:42:38.211Z,70.53
2018-02-20T23:45:04.425Z,61.77
2018-02-20T23:47:30.635Z,64.63
2018-02-20T23:49:56.797Z,65.03
2018-02-20T23:52:23.042Z,55.97
2018-02-20T23:54:49.959Z,69.43
2018-02-20T23:57:16.151Z,62.30
2018-02-20T23:59:42.377Z,63.07
